Airfield :
LOGIN :

Register | Disclaimer

   EN    FR    IT 

 










Legend :    VFR   Marginal VFR   IFR   Intensive IFR   Very Intensive IFR
Visi :
Ceiling :
>= 8 km
>= 3000ft
5 to 8 km
1000 to 3000 ft
1500m to 5 km
500 to 1000 ft
800 to 1500m
200 to 500 ft
< 800m
< 200 ft
Symbols :   Thunderstorms  Fog  Heavy snow  Heavy precipitations  Wind > 20 kt
SIGMETs :     Misc.  Thunderstorms  Icing  Turbulence  Mountain Waves  Volcanic Ashes






- Airport Elevation : 79 ft
- IATA code : NSY


LICZ - Sigonella (Mil) Catania

CURRENT METAR :
  • 282055Z 28007KT 9999 FEW030 SCT100 13/13 Q1007 RMK BKN VIS MIN 9999 WIND THR28 30004KT WIND THR10 /////KT A2974 BLU

EXPIRED METARs :
  • 281955Z 26010KT 9999 SCT025 SCT060 14/14 Q1006 RMK BKN VIS MIN 9999 WIND THR28 26009KT WIND THR10 /////KT A2971 BLU
  • 281855Z 26004KT 4000 BR SCT025 BKN080 15/15 Q1004 RMK BKN BKN200 VIS MIN 4000 WIND THR28 25003KT WIND THR10 /////KT A2968 GRN
  • 281755Z 17003KT 4000 BR BKN025 BKN080 16/16 Q1004 RMK OVC BKN160 VIS MIN 4000 WIND THR28 23004KT WIND THR10 /////KT A2966 GRN
  • 281655Z 06010KT 3000 BR BKN025 BKN080 16/16 Q1004 RMK OVC BKN160 VIS MIN 3000 WIND THR28 07008KT WIND THR10 /////KT A2965 YLO

TAF TAF LICZ
Valid from the 28 at 18:00 until the 29 at 18:00 UTC


281700Z 2818/2918 10015KT 3000 RA BR BKN025
PROB30
TEMPO 2818/2822 1500 TSRA FEW015CB BKN020
BECMG 2900/2902 27005KT CAVOK



MET'MAP, your aeronautical weather chart ! - Copyright ORBIFLY December 2007 - Disclaimer

ORBIFLY MET'MAP TEAM :

Programming & Development : Alexandra Zaïnal
Original concept : Baudouin d'Aumeries
Technical & hardware support : Manuel Goepfert
Assistance : Marc-Olivier Méhu




SOURCES & CREDITS :

   NOAA